Arlington, SD

11:10 AM CST on February 09, 2016 (GMT -0600)
Arlington, SD | | Change Station
CLOSE
Current Station
Personal Weather Station
Location: Arlington, SD
Elevation: 1808 ft
Nearby Weather Stations

Elev 1808 ft 44.38 °N, 97.08 °W | Updated 1 second ago

Overcast
Overcast
13.7 °F
Feels Like 14 °F
N
1.0
Wind Variable Wind from NNW
Gusts 4.0 mph

Today
High -- | Low -- °F
--% Chance of Precip.
Yesterday
High -- | Low -- °F
Precip. -- in
Pressure 30.37 in
Visibility 10.0 miles
Clouds Overcast 5000 ft
Windchill 14 °F
Dew Point 8 °F
Humidity 78%
Rainfall 0.00 in
Snow Depth Not available.
7:37 AM 5:48 PM
New Moon, 2% visible
METAR KBKX 091556Z AUTO 34014KT 10SM OVC050 M13/M17 A3022 RMK AO2 SLP282 T11281167 FZRANO
Pressure 30.37 in
Visibility 10.0 miles
Clouds Overcast 5000 ft
Windchill 14 °F
Dew Point 8 °F
Humidity 78%
Rainfall 0.00 in
Snow Depth Not available.
7:37 AM 5:48 PM
New Moon, 2% visible
METAR KBKX 091556Z AUTO 34014KT 10SM OVC050 M13/M17 A3022 RMK AO2 SLP282 T11281167 FZRANO

10-Day Weather Forecast

Almanac

Astronomy

Feb. 09, 2016 Rise Set
Actual Time
Civil Twilight
Nautical Twilight
Astronomical Twilight
Moon
Length of Visible Light
Length of Day
Tomorrow will be .
, % of the Moon is Illuminated

Today's Extremes

State Highs State Lows

Community

WunderPhotos

Upload Photos

1,891,631 photos uploaded!

WunderBlog® & News

Nearby

Air Quality

  Air Quality AQ Index Pollutant
Not available.

Snow Depth

Station Depth Elevation

Earthquake Activity

City Distance Mag. Time & Date
Minimum magnitude displayed is 2.5.

Coastal Water Temperatures

Place Temperature

Stations

Nearby Weather Stations

Station Location Temp. Windchill Dew Point Humidity Wind Precip. Elev Updated Type
                   

Watches & Warnings

There are currently no watches in effect.